createdAt,value
2023-03-29T00:01:06.873Z,4.78
2023-03-29T00:03:40.556Z,4.82
2023-03-29T00:06:22.365Z,4.30
2023-03-29T00:08:54.886Z,4.80
2023-03-29T00:11:27.933Z,4.72
2023-03-29T00:14:00.459Z,4.88
2023-03-29T00:16:33.288Z,4.78
2023-03-29T00:19:05.876Z,4.45
2023-03-29T00:21:38.505Z,4.40
2023-03-29T00:24:10.998Z,4.82
2023-03-29T00:26:43.513Z,4.63
2023-03-29T00:29:15.832Z,5.03
2023-03-29T00:31:54.064Z,4.93
2023-03-29T00:34:31.039Z,4.95
2023-03-29T00:37:04.389Z,4.45
2023-03-29T00:39:37.291Z,4.95
2023-03-29T00:42:17.713Z,5.03
2023-03-29T00:45:12.705Z,4.57
2023-03-29T00:47:57.656Z,4.55
2023-03-29T00:50:48.656Z,5.45
2023-03-29T00:53:46.828Z,5.13
2023-03-29T00:56:40.202Z,5.30
2023-03-29T00:59:21.841Z,5.18
2023-03-29T01:02:00.111Z,4.00
2023-03-29T01:04:46.507Z,4.72
2023-03-29T01:07:24.010Z,4.78
2023-03-29T01:10:09.308Z,4.65
2023-03-29T01:12:48.995Z,4.53
2023-03-29T01:15:29.026Z,4.47
2023-03-29T01:18:02.256Z,5.00
2023-03-29T01:21:03.466Z,4.45
2023-03-29T01:23:46.093Z,5.30
2023-03-29T01:27:02.544Z,4.80
2023-03-29T01:29:37.712Z,4.55
2023-03-29T01:32:18.438Z,5.47
2023-03-29T01:34:59.040Z,5.07
2023-03-29T01:37:39.147Z,5.15
2023-03-29T01:40:12.280Z,4.35
2023-03-29T01:43:11.769Z,5.13
2023-03-29T01:45:48.802Z,4.43
2023-03-29T01:48:48.659Z,4.82
2023-03-29T01:51:38.809Z,5.45
2023-03-29T01:54:35.959Z,4.82
2023-03-29T01:57:10.806Z,5.32
2023-03-29T01:59:45.047Z,5.07
2023-03-29T02:02:19.542Z,4.95
2023-03-29T02:04:54.636Z,5.50
2023-03-29T02:07:37.621Z,5.07
2023-03-29T02:10:11.880Z,5.80
2023-03-29T02:12:44.134Z,6.22
2023-03-29T02:15:20.415Z,5.68
2023-03-29T02:17:53.225Z,5.45
2023-03-29T02:20:40.758Z,6.10
2023-03-29T02:23:39.090Z,5.72
2023-03-29T02:26:11.976Z,6.30
2023-03-29T02:28:44.410Z,6.25
2023-03-29T02:31:44.039Z,6.65
2023-03-29T02:34:19.514Z,6.25
2023-03-29T02:36:59.042Z,6.53
2023-03-29T02:39:34.930Z,6.65
2023-03-29T02:42:08.539Z,7.13
2023-03-29T02:44:41.721Z,8.50
2023-03-29T02:47:24.337Z,7.22
2023-03-29T02:49:57.062Z,7.22
2023-03-29T02:52:36.112Z,8.13
2023-03-29T02:55:15.222Z,7.55
2023-03-29T02:57:47.339Z,8.98
2023-03-29T03:00:20.292Z,8.95
2023-03-29T03:02:52.610Z,8.70
2023-03-29T03:05:25.148Z,9.98
2023-03-29T03:07:58.684Z,9.18
2023-03-29T03:10:33.436Z,9.48
2023-03-29T03:13:05.998Z,10.77
2023-03-29T03:15:42.907Z,12.00
2023-03-29T03:18:16.913Z,11.32
2023-03-29T03:21:02.215Z,11.45
2023-03-29T03:23:34.843Z,11.40
2023-03-29T03:26:07.086Z,11.50
2023-03-29T03:28:39.939Z,12.25
2023-03-29T03:31:14.221Z,11.80
2023-03-29T03:33:46.817Z,13.50
2023-03-29T03:36:19.016Z,12.40
2023-03-29T03:38:51.858Z,11.38
2023-03-29T03:41:27.290Z,12.48
2023-03-29T03:44:00.065Z,13.07
2023-03-29T03:46:32.335Z,14.25
2023-03-29T03:49:04.926Z,14.07
2023-03-29T03:51:37.108Z,13.13
2023-03-29T03:54:09.470Z,12.80
2023-03-29T03:56:41.865Z,13.60
2023-03-29T03:59:14.118Z,12.75
2023-03-29T04:01:46.397Z,11.20
2023-03-29T04:04:19.863Z,13.57
2023-03-29T04:06:53.178Z,14.43
2023-03-29T04:09:26.015Z,13.88
2023-03-29T04:11:59.685Z,12.50
2023-03-29T04:14:32.452Z,13.05
2023-03-29T04:17:06.681Z,13.43
2023-03-29T04:19:38.892Z,12.48
2023-03-29T04:22:11.127Z,12.23
2023-03-29T04:24:43.719Z,13.10
2023-03-29T04:27:15.857Z,11.98
2023-03-29T04:29:49.099Z,12.25
2023-03-29T04:32:21.328Z,11.10
2023-03-29T04:34:53.412Z,11.27
2023-03-29T04:37:25.879Z,9.48
2023-03-29T04:40:00.602Z,10.80
2023-03-29T04:42:34.457Z,11.32
2023-03-29T04:45:07.350Z,9.73
2023-03-29T04:47:42.242Z,11.45
2023-03-29T04:50:14.858Z,10.10
2023-03-29T04:52:47.409Z,9.30
2023-03-29T04:55:19.828Z,9.52
2023-03-29T04:57:55.860Z,9.60
2023-03-29T05:00:28.801Z,9.93
2023-03-29T05:03:01.263Z,8.90
2023-03-29T05:05:39.488Z,7.95
2023-03-29T05:08:12.632Z,8.68
2023-03-29T05:10:45.187Z,9.00
2023-03-29T05:13:20.121Z,8.90
2023-03-29T05:15:52.763Z,8.48
2023-03-29T05:18:25.430Z,8.50
2023-03-29T05:20:58.971Z,7.85
2023-03-29T05:23:32.016Z,7.50
2023-03-29T05:26:05.422Z,7.97
2023-03-29T05:28:37.673Z,8.05
2023-03-29T05:31:10.509Z,7.70
2023-03-29T05:33:43.388Z,7.03
2023-03-29T05:36:19.280Z,7.95
2023-03-29T05:38:51.515Z,7.10
2023-03-29T05:41:24.922Z,7.15
2023-03-29T05:43:57.086Z,7.38
2023-03-29T05:46:29.508Z,6.70
2023-03-29T05:49:02.657Z,6.57
2023-03-29T05:51:35.633Z,7.07
2023-03-29T05:54:07.804Z,7.22
2023-03-29T05:56:47.049Z,6.85
2023-03-29T05:59:19.951Z,6.55
2023-03-29T06:01:52.178Z,6.80
2023-03-29T06:04:24.868Z,6.72
2023-03-29T06:06:57.642Z,6.25
2023-03-29T06:09:29.966Z,6.28
2023-03-29T06:12:04.372Z,6.70
2023-03-29T06:14:37.525Z,6.70
2023-03-29T06:17:09.852Z,6.80
2023-03-29T06:19:42.570Z,7.25
2023-03-29T06:22:15.025Z,6.00
2023-03-29T06:24:47.381Z,6.82
2023-03-29T06:27:19.877Z,6.75
2023-03-29T06:29:52.868Z,8.15
2023-03-29T06:32:25.963Z,5.63
2023-03-29T06:34:58.286Z,6.20
2023-03-29T06:37:32.219Z,6.20
2023-03-29T06:40:09.554Z,7.15
2023-03-29T06:42:46.302Z,5.95
2023-03-29T06:45:19.701Z,6.28
2023-03-29T06:47:53.931Z,6.60
2023-03-29T06:50:26.766Z,5.85
2023-03-29T06:52:58.972Z,5.85
2023-03-29T06:55:32.160Z,6.82
2023-03-29T06:58:04.541Z,6.47
2023-03-29T07:00:39.267Z,6.38
2023-03-29T07:03:14.994Z,5.95
2023-03-29T07:05:48.193Z,6.47
2023-03-29T07:08:21.454Z,6.75
2023-03-29T07:10:54.216Z,6.45
2023-03-29T07:13:26.585Z,6.47
2023-03-29T07:15:58.979Z,6.43
2023-03-29T07:18:31.362Z,5.95
2023-03-29T07:21:04.951Z,6.40
2023-03-29T07:23:37.781Z,6.03
2023-03-29T07:26:11.395Z,6.22
2023-03-29T07:28:43.676Z,6.28
2023-03-29T07:31:25.649Z,6.28
2023-03-29T07:34:00.970Z,5.53
2023-03-29T07:36:34.720Z,5.80
2023-03-29T07:39:09.363Z,6.68
2023-03-29T07:41:41.667Z,5.65
2023-03-29T07:44:14.231Z,6.13
2023-03-29T07:46:46.526Z,5.93
2023-03-29T07:49:21.010Z,5.95
2023-03-29T07:51:55.248Z,6.40
2023-03-29T07:54:27.460Z,6.90
2023-03-29T07:56:59.841Z,6.50
2023-03-29T07:59:32.292Z,6.68
2023-03-29T08:02:04.754Z,6.00
2023-03-29T08:04:37.250Z,6.20
2023-03-29T08:07:14.858Z,5.60
2023-03-29T08:09:48.803Z,6.03
2023-03-29T08:12:23.152Z,5.63
2023-03-29T08:14:56.880Z,5.97
2023-03-29T08:17:29.121Z,6.47
2023-03-29T08:20:01.521Z,6.25
2023-03-29T08:22:34.405Z,6.78
2023-03-29T08:25:08.553Z,6.85
2023-03-29T08:27:46.752Z,6.05
2023-03-29T08:30:19.457Z,7.30
2023-03-29T08:32:55.189Z,6.07
2023-03-29T08:35:27.900Z,5.07
2023-03-29T08:38:00.263Z,6.47
2023-03-29T08:40:32.598Z,7.45
2023-03-29T08:43:26.316Z,6.43
2023-03-29T08:46:20.207Z,6.50
2023-03-29T08:48:57.951Z,6.20
2023-03-29T08:51:57.035Z,7.10
2023-03-29T08:54:40.199Z,6.75
2023-03-29T08:57:35.703Z,7.55
2023-03-29T09:00:18.534Z,6.53
2023-03-29T09:02:54.130Z,7.22
2023-03-29T09:05:45.338Z,6.68
2023-03-29T09:08:19.972Z,8.05
2023-03-29T09:11:07.355Z,7.00
2023-03-29T09:14:21.666Z,7.13
2023-03-29T09:17:16.935Z,7.68
2023-03-29T09:20:07.078Z,10.43
2023-03-29T09:22:57.937Z,11.40
2023-03-29T09:25:53.600Z,8.15
2023-03-29T09:28:37.491Z,8.02
2023-03-29T09:31:21.756Z,7.75
2023-03-29T09:34:09.288Z,8.23
2023-03-29T09:37:13.784Z,9.43
2023-03-29T09:39:46.366Z,8.50
2023-03-29T09:42:19.962Z,8.30
2023-03-29T09:44:57.572Z,8.73
2023-03-29T09:47:55.222Z,8.73
2023-03-29T09:50:37.123Z,9.13
2023-03-29T09:53:14.620Z,10.38
2023-03-29T09:55:50.645Z,10.50
2023-03-29T09:58:28.584Z,9.82
2023-03-29T10:01:10.567Z,9.32
2023-03-29T10:03:49.471Z,9.93
2023-03-29T10:06:25.705Z,8.95
2023-03-29T10:09:01.787Z,9.85
2023-03-29T10:11:37.153Z,9.63
2023-03-29T10:14:43.438Z,10.20
2023-03-29T10:17:29.726Z,10.18
2023-03-29T10:20:13.366Z,10.65
2023-03-29T10:22:59.734Z,10.25
2023-03-29T10:25:34.656Z,9.77
2023-03-29T10:28:17.560Z,9.90
2023-03-29T10:30:55.950Z,8.98
2023-03-29T10:33:36.866Z,9.75
2023-03-29T10:36:13.717Z,9.93
2023-03-29T10:38:46.794Z,10.30
2023-03-29T10:41:22.124Z,10.45
2023-03-29T10:43:55.291Z,13.10
2023-03-29T10:46:44.404Z,11.73
2023-03-29T10:49:25.196Z,12.23
2023-03-29T10:51:57.693Z,12.52
2023-03-29T10:54:31.346Z,12.85
2023-03-29T10:57:10.650Z,13.70
2023-03-29T10:59:42.921Z,12.10
2023-03-29T11:02:16.776Z,13.85
2023-03-29T11:05:07.114Z,11.57
2023-03-29T11:11:11.556Z,11.27
2023-03-29T11:14:00.022Z,11.02
2023-03-29T11:16:52.753Z,10.27
2023-03-29T11:20:03.711Z,10.77
2023-03-29T11:23:07.767Z,10.77
2023-03-29T11:26:27.977Z,10.25
2023-03-29T11:29:57.365Z,10.02
2023-03-29T11:32:34.845Z,10.50
2023-03-29T11:38:54.047Z,9.43
2023-03-29T11:41:36.463Z,9.68
2023-03-29T11:44:30.959Z,10.02
2023-03-29T11:47:11.259Z,9.20
2023-03-29T11:52:32.872Z,9.45
2023-03-29T11:55:29.083Z,9.15
2023-03-29T11:58:15.537Z,10.25
2023-03-29T12:01:02.858Z,9.57
2023-03-29T12:03:54.811Z,9.93
2023-03-29T12:06:53.642Z,10.07
2023-03-29T12:09:51.207Z,9.50
2023-03-29T12:12:55.949Z,9.43
2023-03-29T12:15:37.103Z,9.85
2023-03-29T12:18:17.534Z,9.65
2023-03-29T12:20:59.224Z,10.05
2023-03-29T12:23:33.304Z,9.02
2023-03-29T12:26:30.503Z,8.55
2023-03-29T12:29:34.847Z,9.00
2023-03-29T12:32:17.255Z,9.48
2023-03-29T12:34:52.334Z,9.55
2023-03-29T12:37:49.413Z,9.65
2023-03-29T12:40:26.375Z,9.77
2023-03-29T12:43:07.505Z,9.95
2023-03-29T12:45:51.169Z,10.02
2023-03-29T12:48:30.275Z,9.07
2023-03-29T12:51:13.562Z,10.77
2023-03-29T12:54:09.583Z,9.93
2023-03-29T12:56:52.325Z,11.02
2023-03-29T12:59:43.267Z,9.40
2023-03-29T13:02:15.495Z,9.45
2023-03-29T13:04:57.682Z,10.07
2023-03-29T13:07:45.961Z,9.73
2023-03-29T13:10:42.350Z,10.32
2023-03-29T13:13:24.306Z,9.95
2023-03-29T13:16:08.275Z,9.90
2023-03-29T13:19:08.996Z,9.57
2023-03-29T13:22:18.447Z,11.25
2023-03-29T13:25:58.402Z,9.47
2023-03-29T13:29:34.032Z,9.75
2023-03-29T13:32:51.313Z,9.60
2023-03-29T13:35:50.805Z,9.55
2023-03-29T13:38:29.011Z,9.70
2023-03-29T13:41:07.463Z,9.65
2023-03-29T13:43:54.086Z,10.18
2023-03-29T13:46:41.797Z,9.48
2023-03-29T13:49:21.449Z,10.30
2023-03-29T13:51:54.003Z,9.73
2023-03-29T13:54:38.068Z,10.07
2023-03-29T13:57:25.767Z,9.38
2023-03-29T14:00:14.289Z,9.27
2023-03-29T14:03:04.482Z,10.13
2023-03-29T14:08:23.924Z,9.85
2023-03-29T14:10:56.568Z,9.55
2023-03-29T14:13:30.337Z,9.75
2023-03-29T14:16:10.681Z,9.05
2023-03-29T14:18:45.231Z,9.38
2023-03-29T14:21:21.456Z,9.07
2023-03-29T14:24:03.537Z,9.00
2023-03-29T14:26:36.205Z,9.32
2023-03-29T14:29:12.282Z,9.48
2023-03-29T14:31:44.571Z,8.57
2023-03-29T14:34:19.390Z,8.73
2023-03-29T14:36:54.361Z,8.57
2023-03-29T14:39:26.877Z,8.45
2023-03-29T14:41:59.534Z,8.88
2023-03-29T14:44:35.142Z,8.40
2023-03-29T14:47:10.227Z,8.73
2023-03-29T14:49:42.641Z,8.35
2023-03-29T14:52:15.192Z,9.52
2023-03-29T14:54:52.232Z,9.48
2023-03-29T14:57:29.285Z,9.25
2023-03-29T15:00:17.063Z,9.80
2023-03-29T15:03:05.336Z,10.23
2023-03-29T15:05:41.386Z,9.88
2023-03-29T15:08:38.759Z,9.82
2023-03-29T15:11:26.720Z,10.82
2023-03-29T15:14:52.077Z,10.65
2023-03-29T15:17:51.098Z,10.02
2023-03-29T15:23:55.927Z,9.65
2023-03-29T15:26:36.942Z,10.23
2023-03-29T15:29:23.631Z,10.10
2023-03-29T15:31:59.886Z,10.10
2023-03-29T15:34:33.832Z,10.00
2023-03-29T15:37:07.882Z,9.98
2023-03-29T15:39:44.364Z,9.95
2023-03-29T15:42:17.016Z,9.88
2023-03-29T15:44:49.187Z,9.10
2023-03-29T15:47:21.345Z,8.77
2023-03-29T15:49:53.647Z,8.00
2023-03-29T15:52:26.075Z,8.90
2023-03-29T15:54:58.254Z,8.82
2023-03-29T15:57:30.648Z,9.63
2023-03-29T16:00:07.888Z,11.20
2023-03-29T16:02:41.173Z,12.98
2023-03-29T16:05:13.751Z,11.00
2023-03-29T16:08:10.597Z,9.70
2023-03-29T16:10:44.132Z,11.00
2023-03-29T16:13:16.485Z,10.27
2023-03-29T16:15:48.658Z,10.80
2023-03-29T16:18:20.921Z,10.02
2023-03-29T16:21:13.857Z,12.98
2023-03-29T16:23:47.399Z,10.98
2023-03-29T16:26:19.616Z,11.48
2023-03-29T16:29:03.758Z,11.23
2023-03-29T16:31:36.683Z,11.60
2023-03-29T16:34:13.220Z,11.32
2023-03-29T16:36:46.743Z,11.73
2023-03-29T16:39:18.937Z,11.77
2023-03-29T16:41:51.201Z,10.30
2023-03-29T16:44:24.883Z,12.10
2023-03-29T16:46:58.628Z,13.07
2023-03-29T16:49:31.053Z,11.18
2023-03-29T16:52:03.173Z,11.70
2023-03-29T16:54:35.399Z,12.77
2023-03-29T16:57:07.899Z,11.57
2023-03-29T16:59:42.027Z,10.73
2023-03-29T17:02:14.208Z,12.32
2023-03-29T17:04:46.656Z,12.65
2023-03-29T17:07:18.891Z,13.43
2023-03-29T17:09:51.543Z,11.85
2023-03-29T17:12:24.268Z,12.27
2023-03-29T17:14:56.704Z,11.00
2023-03-29T17:17:29.404Z,12.07
2023-03-29T17:20:01.887Z,12.02
2023-03-29T17:22:34.502Z,12.55
2023-03-29T17:25:08.515Z,13.38
2023-03-29T17:27:40.638Z,13.13
2023-03-29T17:30:13.705Z,13.52
2023-03-29T17:32:46.027Z,12.30
2023-03-29T17:35:18.474Z,12.68
2023-03-29T17:37:50.541Z,13.00
2023-03-29T17:40:23.046Z,13.18
2023-03-29T17:42:55.338Z,14.38
2023-03-29T17:45:27.544Z,14.40
2023-03-29T17:47:59.784Z,14.75
2023-03-29T17:50:41.399Z,14.30
2023-03-29T17:53:13.708Z,14.65
2023-03-29T17:55:46.118Z,14.95
2023-03-29T17:58:19.647Z,15.88
2023-03-29T18:00:52.111Z,15.80
2023-03-29T18:03:24.323Z,17.73
2023-03-29T18:05:56.857Z,16.67
2023-03-29T18:08:29.132Z,17.23
2023-03-29T18:11:19.727Z,17.58
2023-03-29T18:13:53.839Z,18.98
2023-03-29T18:16:26.481Z,19.50
2023-03-29T18:18:58.611Z,20.02
2023-03-29T18:21:30.866Z,21.17
2023-03-29T18:24:34.010Z,19.33
2023-03-29T18:27:06.339Z,21.02
2023-03-29T18:29:38.770Z,21.73
2023-03-29T18:32:11.737Z,22.50
2023-03-29T18:35:08.138Z,22.33
2023-03-29T18:37:43.658Z,22.80
2023-03-29T18:40:20.193Z,22.70
2023-03-29T18:42:52.587Z,22.38
2023-03-29T18:45:40.361Z,24.10
2023-03-29T18:48:13.197Z,22.20
2023-03-29T18:50:46.805Z,24.55
2023-03-29T18:53:19.845Z,24.27
2023-03-29T18:55:52.062Z,23.92
2023-03-29T18:58:24.255Z,23.08
2023-03-29T19:01:03.500Z,24.42
2023-03-29T19:03:36.557Z,24.57
2023-03-29T19:06:09.330Z,25.88
2023-03-29T19:08:42.235Z,25.02
2023-03-29T19:11:38.681Z,27.13
2023-03-29T19:14:13.175Z,25.42
2023-03-29T19:16:45.664Z,25.23
2023-03-29T19:19:19.006Z,28.42
2023-03-29T19:21:51.256Z,26.50
2023-03-29T19:24:24.431Z,27.77
2023-03-29T19:26:57.613Z,29.95
2023-03-29T19:29:29.969Z,30.50
2023-03-29T19:32:02.550Z,29.92
2023-03-29T19:34:34.922Z,31.73
2023-03-29T19:37:07.264Z,30.10
2023-03-29T19:39:41.266Z,31.77
2023-03-29T19:42:13.468Z,30.92
2023-03-29T19:44:45.698Z,31.27
2023-03-29T19:47:18.003Z,32.10
2023-03-29T19:49:50.544Z,31.33
2023-03-29T19:52:24.172Z,32.58
2023-03-29T19:54:58.737Z,34.35
2023-03-29T19:57:34.418Z,31.85
2023-03-29T20:00:08.407Z,34.72
2023-03-29T20:02:42.676Z,33.97
2023-03-29T20:06:06.649Z,33.08
2023-03-29T20:08:39.214Z,34.47
2023-03-29T20:11:13.925Z,35.95
2023-03-29T20:13:46.118Z,37.00
2023-03-29T20:16:19.325Z,35.60
2023-03-29T20:18:54.163Z,34.70
2023-03-29T20:21:26.337Z,33.25
2023-03-29T20:23:58.482Z,32.60
2023-03-29T20:26:30.880Z,34.47
2023-03-29T20:29:07.359Z,32.50
2023-03-29T20:31:39.696Z,33.03
2023-03-29T20:34:12.022Z,33.53
2023-03-29T20:36:45.692Z,32.35
2023-03-29T20:39:19.018Z,32.38
2023-03-29T20:41:51.836Z,32.13
2023-03-29T20:44:28.594Z,33.55
2023-03-29T20:47:04.397Z,33.33
2023-03-29T20:49:37.753Z,33.97
2023-03-29T20:52:16.750Z,32.97
2023-03-29T20:54:49.774Z,30.25
2023-03-29T20:57:22.061Z,33.17
2023-03-29T20:59:54.353Z,31.85
2023-03-29T21:02:29.426Z,33.78
2023-03-29T21:05:02.499Z,34.05
2023-03-29T21:07:35.027Z,33.42
2023-03-29T21:10:07.877Z,34.75
2023-03-29T21:12:41.328Z,34.58
2023-03-29T21:15:17.925Z,36.72
2023-03-29T21:17:50.143Z,36.78
2023-03-29T21:20:22.451Z,36.38
2023-03-29T21:22:54.658Z,35.60
2023-03-29T21:25:26.927Z,32.75
2023-03-29T21:27:59.110Z,34.53
2023-03-29T21:30:32.187Z,33.42
2023-03-29T21:33:04.905Z,34.10
2023-03-29T21:35:37.433Z,34.40
2023-03-29T21:38:09.575Z,33.33
2023-03-29T21:40:41.808Z,33.80
2023-03-29T21:43:14.045Z,35.90
2023-03-29T21:45:50.640Z,34.60
2023-03-29T21:48:22.759Z,33.38
2023-03-29T21:50:55.107Z,35.25
2023-03-29T21:53:27.983Z,34.35
2023-03-29T21:56:00.703Z,33.97
2023-03-29T21:58:32.868Z,33.05
2023-03-29T22:01:07.478Z,35.85
2023-03-29T22:03:39.931Z,32.95
2023-03-29T22:06:14.430Z,32.72
2023-03-29T22:08:46.977Z,32.35
2023-03-29T22:11:19.964Z,32.58
2023-03-29T22:13:52.825Z,31.90
2023-03-29T22:16:26.057Z,33.10
2023-03-29T22:18:58.395Z,31.23
2023-03-29T22:21:31.467Z,32.78
2023-03-29T22:24:04.065Z,30.45
2023-03-29T22:26:36.199Z,31.00
2023-03-29T22:29:08.345Z,31.90
2023-03-29T22:31:40.499Z,32.33
2023-03-29T22:34:12.777Z,31.65
2023-03-29T22:36:50.780Z,30.00
2023-03-29T22:39:23.050Z,31.00
2023-03-29T22:41:55.196Z,29.95
2023-03-29T22:44:27.490Z,29.50
2023-03-29T22:47:00.107Z,28.02
2023-03-29T22:49:32.250Z,28.23
2023-03-29T22:52:05.056Z,28.13
2023-03-29T22:54:37.156Z,27.20
2023-03-29T22:57:09.334Z,27.80
2023-03-29T22:59:41.547Z,27.63
2023-03-29T23:02:13.673Z,26.08
2023-03-29T23:04:46.027Z,26.85
2023-03-29T23:07:18.274Z,27.88
2023-03-29T23:09:50.779Z,26.40
2023-03-29T23:12:28.136Z,28.40
2023-03-29T23:15:00.676Z,25.50
2023-03-29T23:17:33.305Z,28.10
2023-03-29T23:20:06.469Z,26.38
2023-03-29T23:22:39.905Z,25.50
2023-03-29T23:25:12.219Z,25.98
2023-03-29T23:27:44.312Z,24.67
2023-03-29T23:30:18.648Z,24.73
2023-03-29T23:32:54.804Z,25.90
2023-03-29T23:35:27.162Z,25.23
2023-03-29T23:37:59.955Z,26.92
2023-03-29T23:40:33.405Z,25.83
2023-03-29T23:43:05.517Z,25.13
2023-03-29T23:45:37.685Z,26.00
2023-03-29T23:48:09.787Z,25.55
2023-03-29T23:50:46.588Z,24.92
2023-03-29T23:53:20.074Z,26.70
2023-03-29T23:55:52.250Z,26.55
2023-03-29T23:58:25.006Z,23.75
